Meteo Giornale » Osservazioni meteo Stati Uniti (USA) » Fort Worth
ore: 20:52 - Osservazioni Meteo Fort Worth
Lat. 32° 45' N Lon. 97° 26' W Alt. 198 metri s.l.m.
34 °C
Poco Nuvoloso
Temp. 24 Ore
26 °C
38 °C
Sud/Sud-Est
11.1 Km/h
Dew point 16 °C
Umidità 34 %
Visibilità 10 Km
Il sole sorge alle ore 07:03
Il sole tramonta alle ore 19:55
| Data e Ora | Cielo e Fenomeni | T °C | DP °C | Um. % | Pres. hPa | Vis. km | Vento km/h | |
|---|---|---|---|---|---|---|---|---|
| Oggi h: 20:52 | Poco Nuvoloso | 34 | 16 | 34 | 1014 | 10 | S/SE 11.1 | |
| Oggi h: 19:52 | Poco Nuvoloso | 35 | 16 | 32 | 1013 | 10 | SE 13 | |
| Oggi h: 18:52 | Nuvoloso | 37 | 14 | 25 | 1013 | 10 | SE 9.3 | |
| Oggi h: 17:52 | Nuvoloso | 38 | 14 | 24 | 1013 | 10 | S/SE 18.5 | |
| Oggi h: 16:52 | Nuvoloso | 38 | 15 | 25 | 1014 | 10 | SE 22.2 | |
| Oggi h: 15:52 | Nuvoloso | 38 | 14 | 24 | 1014 | 10 | S 13 | |
| Oggi h: 13:52 | Poco Nuvoloso | 38 | 16 | 27 | 1016 | 10 | S/SE 22.2 | |
| Oggi h: 12:52 | Poco Nuvoloso | 37 | 17 | 30 | 1016 | 10 | S/SE 14.8 | |
| Oggi h: 11:52 | Sereno | 36 | 17 | 32 | 1017 | 10 | S 18.5 | |
| Oggi h: 10:52 | Poco Nuvoloso | 34 | 18 | 38 | 1017 | 10 | S 14.8 | |
| Oggi h: 09:52 | Poco Nuvoloso | 32 | 19 | 46 | 1017 | 10 | S/SO 14.8 | |
| Oggi h: 08:52 | Poco Nuvoloso | 29 | 21 | 62 | 1017 | 10 | S/SO 18.5 | |
| Oggi h: 07:52 | Poco Nuvoloso | 27 | 21 | 69 | 1016 | 10 | S 11.1 | |
| Oggi h: 06:52 | Sereno | 26 | 20 | 69 | 1015 | 10 | S 13 | |
| Oggi h: 05:52 | Poco Nuvoloso | 27 | 20 | 65 | 1015 | 10 | S/SE 7.4 | |
| Oggi h: 04:52 | Sereno | 26 | 19 | 65 | 1015 | 10 | S 11.1 | |
| Oggi h: 03:52 | Sereno | 27 | 18 | 57 | 1014 | 10 | S 14.8 | |
| Oggi h: 01:52 | Sereno | 30 | 17 | 45 | 1014 | 10 | S 24 | |
| Oggi h: 00:52 | Sereno | 29 | 16 | 45 | 1014 | 10 | S 16.7 | |
| Ieri h: 23:52 | Sereno | 30 | 16 | 42 | 1014 | 10 | S 14.8 | |
| Ieri h: 22:52 | Sereno | 32 | 15 | 35 | 1014 | 10 | S/SE 13 | |



